Time;durP1;ratioP1;P1;durP2;ratioP2;P2;SDS_P1;SDS_P2;PMS_P1;PMS_P2;Temp;Humidity;BMP_temperature;BMP_pressure;BME280_temperature;BME280_humidity;BME280_pressure;Samples;Min_cycle;Max_cycle;Signal;HPM_P1;HPM_P2
2021/06/17 00:01:01;;;;;;;1.70;1.60;;;;;;;15.28;90.97;95399.56;5080901;28;20221;-68
2021/06/17 00:03:29;;;;;;;2.60;2.50;;;;;;;15.27;90.99;95398.75;5068303;28;20249;-68
2021/06/17 00:05:57;;;;;;;1.80;1.70;;;;;;;15.26;90.90;95404.28;5068504;28;20257;-68
2021/06/17 00:08:24;;;;;;;2.23;2.00;;;;;;;15.25;90.97;95395.50;5071645;28;20214;-68
2021/06/17 00:10:53;;;;;;;2.57;2.43;;;;;;;15.23;90.99;95402.06;5066371;28;20257;-68
2021/06/17 00:13:26;;;;;;;3.03;2.77;;;;;;;15.20;90.67;95392.69;5070150;28;20300;-68
2021/06/17 00:15:58;;;;;;;2.57;2.37;;;;;;;15.08;90.27;95400.53;5085052;28;20229;-68
2021/06/17 00:18:27;;;;;;;2.87;2.27;;;;;;;14.97;90.20;95403.09;5076326;28;20651;-68
2021/06/17 00:20:55;;;;;;;3.97;3.13;;;;;;;14.85;90.46;95410.16;5063673;28;20759;-68
2021/06/17 00:23:23;;;;;;;2.93;2.73;;;;;;;14.77;90.62;95403.28;5087198;28;20249;-68
2021/06/17 00:25:52;;;;;;;2.43;2.33;;;;;;;14.75;90.97;95405.34;5066861;28;20253;-68
2021/06/17 00:28:20;;;;;;;3.13;2.20;;;;;;;14.72;91.38;95401.28;5079626;28;20303;-68
2021/06/17 00:30:50;;;;;;;1.97;1.87;;;;;;;14.70;91.47;95397.19;5065751;28;20269;-68
2021/06/17 00:33:18;;;;;;;2.93;2.73;;;;;;;14.68;91.46;95399.25;5075227;28;20257;-68
2021/06/17 00:35:46;;;;;;;2.37;2.27;;;;;;;14.65;91.50;95405.00;5075563;28;20269;-68
2021/06/17 00:38:14;;;;;;;3.40;2.80;;;;;;;14.60;90.88;95402.16;5076183;28;20249;-68
2021/06/17 00:40:42;;;;;;;3.43;2.47;;;;;;;14.54;91.39;95403.00;5091440;27;20274;-68
2021/06/17 00:43:11;;;;;;;3.37;3.07;;;;;;;14.45;91.75;95399.81;5088856;28;20674;-68
2021/06/17 00:45:42;;;;;;;3.60;3.30;;;;;;;14.43;91.90;95397.31;5083603;28;20714;-68
2021/06/17 00:48:13;;;;;;;2.40;2.30;;;;;;;14.41;92.09;95394.09;5068877;28;20683;-68
2021/06/17 00:50:43;;;;;;;2.60;2.50;;;;;;;14.40;92.66;95386.34;5080831;28;20251;-68
2021/06/17 00:53:17;;;;;;;1.93;1.83;;;;;;;14.42;92.84;95390.41;5072371;28;20966;-67
2021/06/17 00:55:47;;;;;;;3.13;2.67;;;;;;;14.43;92.86;95386.72;5078992;28;20639;-68
2021/06/17 00:58:16;;;;;;;3.73;2.17;;;;;;;14.41;92.87;95388.78;5084650;28;20249;-68
2021/06/17 01:00:45;;;;;;;3.50;3.20;;;;;;;14.39;92.79;95388.19;5083223;28;20222;-68
2021/06/17 01:03:14;;;;;;;3.00;2.80;;;;;;;14.39;92.83;95380.22;5070633;28;20334;-68
2021/06/17 01:05:42;;;;;;;1.80;1.70;;;;;;;14.38;92.81;95383.09;5080313;28;20222;-68
2021/06/17 01:08:18;;;;;;;2.60;2.23;;;;;;;14.38;92.76;95383.91;5078150;28;20324;-68
2021/06/17 01:10:55;;;;;;;1.70;1.60;;;;;;;14.38;92.40;95378.59;5084084;28;20217;-68
2021/06/17 01:13:32;;;;;;;2.43;2.23;;;;;;;14.36;92.42;95380.66;5082664;28;20395;-68
2021/06/17 01:16:14;;;;;;;2.57;2.37;;;;;;;14.34;92.55;95393.31;5082800;28;20225;-68
2021/06/17 01:18:49;;;;;;;3.90;2.30;;;;;;;14.36;92.38;95388.63;5071870;28;20310;-68
2021/06/17 01:21:33;;;;;;;2.63;2.50;;;;;;;14.30;92.27;95386.81;5078446;28;20601;-68
2021/06/17 01:24:26;;;;;;;1.93;1.83;;;;;;;14.19;92.38;95380.34;5082873;28;20217;-68
2021/06/17 01:27:32;;;;;;;3.37;3.07;;;;;;;14.16;92.55;95379.94;5083252;28;20232;-68
2021/06/17 01:30:06;;;;;;;2.40;2.30;;;;;;;14.14;93.31;95379.34;5096008;28;20232;-68
2021/06/17 01:32:36;;;;;;;2.93;2.73;;;;;;;14.11;93.09;95371.81;5085489;28;20281;-68
2021/06/17 01:35:06;;;;;;;3.87;3.03;;;;;;;14.06;93.02;95375.09;5081944;28;20243;-68
2021/06/17 01:37:37;;;;;;;2.83;2.63;;;;;;;14.01;92.71;95376.78;5082039;28;20229;-68
2021/06/17 01:40:08;;;;;;;2.13;2.00;;;;;;;13.93;92.72;95377.81;5075920;28;20206;-68
2021/06/17 01:42:39;;;;;;;5.87;4.10;;;;;;;13.84;92.77;95369.28;5083608;28;20236;-68
2021/06/17 01:45:11;;;;;;;3.40;3.00;;;;;;;13.75;92.66;95367.91;5083239;28;20224;-68
2021/06/17 01:47:42;;;;;;;3.30;2.40;;;;;;;13.65;92.48;95372.84;5064257;28;20222;-68
2021/06/17 01:50:14;;;;;;;3.77;2.97;;;;;;;13.58;92.81;95372.03;5068002;28;20575;-68
2021/06/17 01:52:44;;;;;;;4.27;3.40;;;;;;;13.49;94.02;95370.66;5083501;28;20221;-68
2021/06/17 01:55:14;;;;;;;4.03;3.63;;;;;;;13.45;94.67;95378.22;5075947;28;20225;-68
2021/06/17 01:57:45;;;;;;;2.23;2.13;;;;;;;13.49;94.72;95362.69;5084294;28;20225;-68
2021/06/17 02:00:16;;;;;;;3.73;3.53;;;;;;;13.41;94.72;95370.88;5090069;28;20308;-68
2021/06/17 02:02:46;;;;;;;2.60;2.50;;;;;;;13.35;94.75;95356.63;5075478;28;20245;-68
2021/06/17 02:05:16;;;;;;;3.13;3.00;;;;;;;13.33;94.43;95356.00;5082971;28;20695;-68
2021/06/17 02:07:45;;;;;;;3.80;3.00;;;;;;;13.27;94.43;95357.66;5080062;28;20316;-68
2021/06/17 02:10:18;;;;;;;2.73;2.53;;;;;;;13.23;94.65;95352.97;5078422;28;20218;-68
2021/06/17 02:12:47;;;;;;;3.13;2.93;;;;;;;13.15;95.11;95356.63;5066808;28;20232;-68
2021/06/17 02:15:19;;;;;;;3.30;3.07;;;;;;;13.13;95.13;95348.06;5070358;28;20585;-68
2021/06/17 02:17:50;;;;;;;3.00;2.90;;;;;;;13.17;95.28;95346.66;5080501;28;20232;-68
2021/06/17 02:20:19;;;;;;;2.93;2.73;;;;;;;13.20;95.78;95348.91;5086462;28;20226;-68
2021/06/17 02:22:49;;;;;;;3.03;2.83;;;;;;;13.23;96.14;95343.19;5084861;28;20305;-68
2021/06/17 02:25:18;;;;;;;4.07;3.57;;;;;;;13.25;96.34;95335.84;5082758;28;20279;-68
2021/06/17 02:27:49;;;;;;;3.73;3.43;;;;;;;13.29;96.62;95345.03;5077793;28;20296;-68
2021/06/17 02:30:19;;;;;;;2.80;2.57;;;;;;;13.32;96.58;95347.25;5086928;28;20232;-68
2021/06/17 02:32:50;;;;;;;2.37;2.17;;;;;;;13.31;96.46;95348.25;5079451;28;20308;-68
2021/06/17 02:35:21;;;;;;;2.60;2.50;;;;;;;13.31;96.38;95350.91;5081200;28;20712;-68
2021/06/17 02:37:53;;;;;;;3.50;3.20;;;;;;;13.30;96.40;95343.19;5087711;28;20236;-68
2021/06/17 02:40:23;;;;;;;3.57;3.37;;;;;;;13.28;96.34;95339.94;5077711;28;20313;-68
2021/06/17 02:43:06;;;;;;;4.10;3.80;;;;;;;13.26;96.64;95342.78;5088902;28;20202;-68
2021/06/17 02:45:36;;;;;;;3.77;3.50;;;;;;;13.24;96.67;95336.88;5089075;28;20272;-68
2021/06/17 02:48:05;;;;;;;4.17;3.87;;;;;;;13.23;96.51;95337.88;5085489;28;20690;-68
2021/06/17 02:50:33;;;;;;;3.63;3.33;;;;;;;13.22;96.51;95336.25;5083773;28;20672;-68
2021/06/17 02:53:01;;;;;;;2.57;2.47;;;;;;;13.20;96.53;95337.50;5082445;28;20318;-66
2021/06/17 02:55:29;;;;;;;4.77;4.47;;;;;;;13.16;96.49;95337.06;5087030;28;20279;-66
2021/06/17 02:58:08;;;;;;;3.67;3.37;;;;;;;13.10;96.70;95338.72;5090962;28;20766;-66
2021/06/17 03:00:44;;;;;;;2.80;2.70;;;;;;;13.06;96.60;95336.66;5084897;28;20215;-66
2021/06/17 03:03:16;;;;;;;3.60;3.30;;;;;;;13.04;96.41;95336.06;5080589;28;20326;-66
2021/06/17 03:05:51;;;;;;;2.90;2.70;;;;;;;13.04;96.54;95330.78;5083192;28;20225;-67
2021/06/17 03:08:22;;;;;;;2.67;2.47;;;;;;;13.06;96.67;95331.38;5078790;28;20229;-67
2021/06/17 03:10:58;;;;;;;5.00;4.50;;;;;;;13.05;96.96;95329.75;5083942;28;20642;-66
2021/06/17 03:13:31;;;;;;;4.20;4.00;;;;;;;13.03;97.04;95337.91;5090643;28;20241;-67
2021/06/17 03:16:02;;;;;;;3.93;3.57;;;;;;;13.05;97.28;95335.03;5086248;28;20309;-66
2021/06/17 03:18:33;;;;;;;4.30;4.00;;;;;;;13.00;96.75;95343.63;5085174;28;20751;-67
2021/06/17 03:21:03;;;;;;;3.70;3.50;;;;;;;12.94;96.85;95335.69;5086884;28;20222;-67
2021/06/17 03:23:31;;;;;;;3.00;2.77;;;;;;;12.89;96.91;95340.78;5088468;27;20300;-67
2021/06/17 03:26:02;;;;;;;2.23;2.13;;;;;;;12.89;96.86;95341.59;5073512;28;20237;-66
2021/06/17 03:28:31;;;;;;;1.60;1.50;;;;;;;12.90;96.67;95337.94;5081294;28;20718;-67
2021/06/17 03:31:03;;;;;;;3.43;2.13;;;;;;;12.93;97.09;95337.53;5089385;28;20218;-67
2021/06/17 03:33:33;;;;;;;2.37;2.23;;;;;;;12.96;97.22;95341.59;5088740;28;20213;-66
2021/06/17 03:36:02;;;;;;;3.10;2.90;;;;;;;12.99;97.41;95351.78;5079390;28;20218;-67
2021/06/17 03:38:31;;;;;;;3.40;3.20;;;;;;;13.06;97.54;95347.28;5077812;28;20291;-67
2021/06/17 03:41:01;;;;;;;2.97;2.83;;;;;;;13.14;97.74;95355.00;5090411;28;20331;-67
2021/06/17 03:43:31;;;;;;;3.20;2.90;;;;;;;13.20;97.81;95356.88;5086326;28;20218;-67
2021/06/17 03:46:02;;;;;;;3.73;3.43;;;;;;;13.22;97.36;95368.06;5088553;28;20259;-67
2021/06/17 03:48:30;;;;;;;2.57;2.37;;;;;;;13.23;97.04;95359.09;5078013;28;20235;-67
2021/06/17 03:51:00;;;;;;;2.83;2.73;;;;;;;13.21;96.64;95361.13;5080204;28;20573;-67
2021/06/17 03:53:29;;;;;;;2.53;2.43;;;;;;;13.23;96.34;95368.88;5075121;28;20210;-67
2021/06/17 03:55:59;;;;;;;3.63;3.40;;;;;;;13.25;96.09;95370.28;5096839;28;20222;-67
2021/06/17 03:58:27;;;;;;;2.63;1.80;;;;;;;13.26;95.92;95368.47;5093266;28;20300;-66
2021/06/17 04:00:57;;;;;;;1.57;1.47;;;;;;;13.25;95.57;95378.22;5087376;28;20225;-67
2021/06/17 04:03:28;;;;;;;1.30;1.20;;;;;;;13.31;95.52;95369.47;5082185;28;20283;-66
2021/06/17 04:05:58;;;;;;;3.30;1.83;;;;;;;13.36;95.59;95374.97;5084046;28;20430;-66
2021/06/17 04:08:30;;;;;;;2.00;1.90;;;;;;;13.46;95.74;95366.59;5075156;28;20226;-66
2021/06/17 04:11:00;;;;;;;3.30;3.10;;;;;;;13.54;95.78;95373.50;5079900;28;20213;-66
2021/06/17 04:13:31;;;;;;;4.20;3.33;;;;;;;13.58;95.31;95377.34;5085274;28;20314;-66
2021/06/17 04:16:00;;;;;;;2.87;2.77;;;;;;;13.62;95.02;95378.53;5087452;28;20279;-67
2021/06/17 04:18:32;;;;;;;3.73;2.97;;;;;;;13.59;94.62;95384.28;5078069;28;20679;-66
2021/06/17 04:21:02;;;;;;;3.20;3.00;;;;;;;13.60;94.56;95381.41;5083521;28;20212;-67
2021/06/17 04:23:31;;;;;;;3.23;3.07;;;;;;;13.65;94.42;95386.09;5083411;28;20301;-66
2021/06/17 04:26:01;;;;;;;3.90;3.60;;;;;;;13.66;94.48;95379.75;5086498;28;20257;-66
2021/06/17 04:28:30;;;;;;;3.00;2.80;;;;;;;13.71;94.16;95379.94;5077890;28;20237;-66
2021/06/17 04:30:59;;;;;;;2.87;2.67;;;;;;;13.76;94.21;95384.63;5082630;28;20232;-66
2021/06/17 04:33:29;;;;;;;4.33;4.03;;;;;;;13.82;94.22;95395.22;5080994;28;20228;-66
2021/06/17 04:36:02;;;;;;;3.70;3.40;;;;;;;13.86;93.99;95396.41;5080298;28;20303;-67
2021/06/17 04:38:31;;;;;;;4.63;3.30;;;;;;;13.90;94.04;95392.31;5079469;27;20268;-67
2021/06/17 04:40:59;;;;;;;4.03;3.77;;;;;;;13.95;94.15;95397.00;5083443;28;20241;-67
2021/06/17 04:43:27;;;;;;;4.03;3.67;;;;;;;14.05;94.07;95393.88;5076754;28;20337;-67
2021/06/17 04:45:58;;;;;;;5.13;4.70;;;;;;;14.13;94.28;95398.94;5082297;28;20234;-67
2021/06/17 04:48:29;;;;;;;3.53;3.33;;;;;;;14.22;94.36;95395.81;5079610;28;20297;-67
2021/06/17 04:50:58;;;;;;;3.33;3.13;;;;;;;14.35;93.63;95394.94;5075199;28;20692;-67
2021/06/17 04:53:26;;;;;;;3.53;3.33;;;;;;;14.47;93.67;95395.91;5079893;28;20314;-67
2021/06/17 04:55:55;;;;;;;4.40;4.00;;;;;;;14.60;93.39;95399.50;5085606;28;20244;-67
2021/06/17 04:58:25;;;;;;;4.80;4.43;;;;;;;14.71;93.02;95396.16;5064604;28;20218;-67
2021/06/17 05:00:53;;;;;;;4.07;3.87;;;;;;;14.85;92.89;95391.56;5079579;28;20319;-67
2021/06/17 05:03:22;;;;;;;4.87;4.50;;;;;;;15.01;92.63;95396.34;5085958;28;20228;-67
2021/06/17 05:05:52;;;;;;;4.60;4.27;;;;;;;15.16;92.50;95399.47;5074907;28;20287;-67
2021/06/17 05:11:06;;;;;;;6.33;5.93;;;;;;;15.48;90.67;95404.69;5064385;27;20264;-67
2021/06/17 05:13:34;;;;;;;5.07;4.77;;;;;;;15.59;91.14;95404.75;5063807;28;20301;-67
2021/06/17 05:16:03;;;;;;;6.10;5.47;;;;;;;15.74;92.03;95403.63;5080536;28;20217;-67
2021/06/17 05:18:31;;;;;;;6.03;5.63;;;;;;;15.86;92.57;95407.97;5078330;28;20226;-67
2021/06/17 05:21:00;;;;;;;7.30;5.43;;;;;;;15.98;92.16;95400.03;5083817;28;20210;-67
2021/06/17 05:23:29;;;;;;;5.50;5.20;;;;;;;16.11;91.33;95399.91;5083512;28;20229;-67
2021/06/17 05:25:59;;;;;;;6.87;6.47;;;;;;;16.27;90.13;95402.94;5081518;28;20567;-67
2021/06/17 05:28:29;;;;;;;6.53;6.13;;;;;;;16.42;89.02;95414.03;5068045;28;20403;-67
2021/06/17 05:30:59;;;;;;;6.33;5.67;;;;;;;16.56;89.46;95418.13;5055960;28;20749;-67
2021/06/17 05:33:29;;;;;;;6.83;6.40;;;;;;;16.69;89.67;95415.28;5068918;28;20245;-67
2021/06/17 05:35:58;;;;;;;6.97;6.50;;;;;;;16.83;89.24;95418.59;5049601;28;20226;-67
2021/06/17 05:38:28;;;;;;;7.83;7.33;;;;;;;16.98;89.11;95415.47;5053332;28;20244;-67
2021/06/17 05:40:57;;;;;;;6.67;6.27;;;;;;;17.11;88.83;95419.78;5056206;28;20297;-68
2021/06/17 05:43:26;;;;;;;7.40;6.87;;;;;;;17.23;88.44;95408.09;5069119;28;20221;-67
2021/06/17 05:45:54;;;;;;;5.70;5.30;;;;;;;17.34;87.91;95415.28;5070435;28;20794;-67
2021/06/17 05:48:22;;;;;;;5.73;5.43;;;;;;;17.48;86.70;95409.72;5075762;28;20221;-67
2021/06/17 05:50:50;;;;;;;6.00;5.60;;;;;;;17.60;84.84;95405.19;5087130;28;20289;-67
2021/06/17 05:53:18;;;;;;;6.27;5.87;;;;;;;17.74;83.89;95406.59;5077856;28;20752;-67
2021/06/17 05:55:46;;;;;;;5.70;5.20;;;;;;;17.87;83.30;95410.84;5082493;28;20271;-67
2021/06/17 05:58:16;;;;;;;5.43;5.03;;;;;;;17.99;82.24;95410.81;5086544;28;20296;-67
2021/06/17 06:00:44;;;;;;;5.40;5.10;;;;;;;18.08;82.65;95412.06;5093947;28;20239;-67
2021/06/17 06:03:11;;;;;;;4.77;4.37;;;;;;;18.18;83.40;95409.59;5076553;28;20509;-67
2021/06/17 06:05:39;;;;;;;6.17;5.67;;;;;;;18.31;83.29;95408.53;5076410;28;20666;-68
2021/06/17 06:08:11;;;;;;;6.23;5.73;;;;;;;18.42;83.52;95410.34;5088232;27;20218;-66
2021/06/17 06:10:39;;;;;;;6.03;5.63;;;;;;;18.40;83.90;95413.25;5090943;27;20225;-67
2021/06/17 06:13:08;;;;;;;5.70;5.30;;;;;;;18.53;82.79;95416.69;5083662;28;20399;-66
2021/06/17 06:15:38;;;;;;;5.63;5.23;;;;;;;18.67;82.10;95415.38;5086077;28;20313;-66
2021/06/17 06:18:07;;;;;;;4.93;4.73;;;;;;;18.84;81.07;95416.22;5080806;28;20217;-66
2021/06/17 06:20:36;;;;;;;7.17;5.43;;;;;;;19.03;79.89;95417.59;5079152;28;20309;-66
2021/06/17 06:23:05;;;;;;;4.97;4.57;;;;;;;19.22;78.42;95412.81;5087777;28;20304;-66
2021/06/17 06:25:34;;;;;;;5.23;4.60;;;;;;;19.42;77.80;95417.66;5083779;28;20245;-66
2021/06/17 06:28:03;;;;;;;4.57;4.10;;;;;;;19.59;76.96;95426.53;5091145;28;20614;-66
2021/06/17 06:30:31;;;;;;;4.93;4.50;;;;;;;19.74;75.85;95435.81;5086301;28;20304;-66
2021/06/17 06:33:00;;;;;;;4.90;4.60;;;;;;;19.86;75.41;95431.19;5086615;28;20217;-66
2021/06/17 06:35:28;;;;;;;4.93;4.37;;;;;;;19.94;74.63;95428.09;5075594;28;20313;-66
2021/06/17 06:37:56;;;;;;;5.33;4.97;;;;;;;20.09;74.64;95430.13;5083714;28;20704;-66
2021/06/17 06:40:27;;;;;;;4.43;4.13;;;;;;;20.24;74.33;95433.00;5088137;28;20309;-66
2021/06/17 06:42:56;;;;;;;4.80;4.50;;;;;;;20.41;73.62;95432.94;5086285;28;20702;-66
2021/06/17 06:45:25;;;;;;;4.47;4.27;;;;;;;20.58;72.60;95428.34;5087492;27;20239;-66
2021/06/17 06:47:53;;;;;;;4.80;4.43;;;;;;;20.74;72.03;95438.13;5084689;28;20682;-66
2021/06/17 06:50:23;;;;;;;4.40;4.00;;;;;;;20.89;71.81;95429.44;5086810;28;20250;-66
2021/06/17 06:52:52;;;;;;;4.63;4.43;;;;;;;21.01;71.64;95432.75;5088428;28;20224;-66
2021/06/17 06:55:21;;;;;;;4.40;4.10;;;;;;;21.18;70.98;95435.31;5081646;28;20317;-66
2021/06/17 06:57:49;;;;;;;4.13;3.93;;;;;;;21.40;68.61;95439.84;5087195;27;20670;-66
2021/06/17 07:00:18;;;;;;;2.80;2.60;;;;;;;21.54;68.21;95438.31;5089537;28;20309;-66
2021/06/17 07:02:48;;;;;;;4.23;3.93;;;;;;;21.71;67.76;95448.91;5085515;28;20352;-66
2021/06/17 07:05:16;;;;;;;3.50;3.27;;;;;;;21.89;67.91;95445.00;5079655;28;20352;-66
2021/06/17 07:07:45;;;;;;;3.00;2.80;;;;;;;22.04;68.52;95445.09;5088543;28;20320;-66
2021/06/17 07:10:14;;;;;;;3.53;2.70;;;;;;;22.22;66.74;95443.84;5084762;28;20316;-66
2021/06/17 07:12:43;;;;;;;3.97;3.00;;;;;;;22.41;65.21;95440.44;5084143;28;20226;-66
2021/06/17 07:15:13;;;;;;;5.20;4.77;;;;;;;22.54;63.73;95439.13;5090972;28;20252;-67
2021/06/17 07:17:41;;;;;;;2.63;2.47;;;;;;;22.74;63.03;95443.75;5082230;28;20460;-66
2021/06/17 07:20:10;;;;;;;2.90;2.73;;;;;;;22.94;63.98;95443.00;5089322;28;20653;-66
2021/06/17 07:22:38;;;;;;;2.43;2.33;;;;;;;23.20;62.94;95443.84;5080376;28;20305;-65
2021/06/17 07:25:09;;;;;;;2.87;2.67;;;;;;;23.36;64.32;95445.47;5079612;28;20362;-67
2021/06/17 07:27:37;;;;;;;3.27;3.03;;;;;;;23.56;64.44;95450.06;5091889;27;20252;-67
2021/06/17 07:30:06;;;;;;;2.20;2.10;;;;;;;23.76;62.86;95450.06;5077401;28;20293;-67
2021/06/17 07:32:34;;;;;;;2.42;2.33;;;;;;;23.95;62.09;95446.78;5085510;28;20312;-67
2021/06/17 07:35:03;;;;;;;3.17;3.00;;;;;;;24.22;62.09;95446.44;5083606;28;20221;-67
2021/06/17 07:37:31;;;;;;;2.58;2.47;;;;;;;24.40;62.97;95443.97;5086171;28;20321;-67
2021/06/17 07:39:59;;;;;;;3.17;2.95;;;;;;;24.57;62.56;95442.84;5081303;28;20734;-67
2021/06/17 07:42:28;;;;;;;4.55;3.35;;;;;;;24.75;62.87;95449.50;5085833;28;20221;-67
2021/06/17 07:44:56;;;;;;;3.65;3.45;;;;;;;24.80;61.79;95446.78;5085771;28;20303;-67
2021/06/17 07:47:24;;;;;;;3.55;2.88;;;;;;;24.95;62.20;95452.88;5082853;28;20228;-67
2021/06/17 07:49:52;;;;;;;3.60;3.40;;;;;;;25.14;61.58;95438.75;5086341;27;20268;-67
2021/06/17 07:52:20;;;;;;;3.60;3.40;;;;;;;25.24;60.91;95431.41;5077864;27;20297;-67
2021/06/17 07:54:48;;;;;;;3.63;3.33;;;;;;;25.33;60.13;95438.88;5080145;28;20225;-67
2021/06/17 07:57:17;;;;;;;4.70;3.10;;;;;;;25.52;59.57;95437.91;5080113;28;20624;-67
2021/06/17 07:59:46;;;;;;;2.83;2.72;;;;;;;25.73;60.39;95437.75;5084971;28;20218;-67
2021/06/17 08:02:15;;;;;;;2.33;2.22;;;;;;;25.99;59.82;95436.41;5084034;28;20252;-67
2021/06/17 08:04:43;;;;;;;2.58;2.47;;;;;;;26.26;57.86;95425.03;5077311;28;20214;-67
2021/06/17 08:07:11;;;;;;;2.50;2.40;;;;;;;26.55;56.77;95426.88;5081945;28;20219;-67
2021/06/17 08:09:39;;;;;;;2.67;2.58;;;;;;;26.80;55.69;95428.44;5082283;28;20535;-68
2021/06/17 08:12:09;;;;;;;2.75;2.65;;;;;;;27.04;54.19;95422.97;5084805;28;20217;-68
2021/06/17 08:14:37;;;;;;;2.90;2.63;;;;;;;27.26;54.08;95431.31;5083780;28;20232;-68
2021/06/17 08:17:06;;;;;;;3.35;3.15;;;;;;;27.40;53.87;95432.16;5077355;28;20304;-67
2021/06/17 08:19:34;;;;;;;2.78;2.67;;;;;;;27.52;54.90;95436.31;5081673;28;20219;-68
2021/06/17 08:22:05;;;;;;;3.40;2.72;;;;;;;27.75;55.11;95435.41;5089242;28;20686;-68
2021/06/17 08:24:36;;;;;;;3.80;3.53;;;;;;;27.99;53.60;95436.06;5079928;28;20230;-67
2021/06/17 08:27:05;;;;;;;3.17;2.97;;;;;;;28.23;52.88;95444.00;5081491;28;20332;-68
2021/06/17 08:29:34;;;;;;;3.28;3.17;;;;;;;28.45;53.35;95440.63;5081535;28;20229;-68
2021/06/17 08:32:02;;;;;;;2.75;2.65;;;;;;;28.60;51.86;95437.59;5082213;28;20579;-67
2021/06/17 08:34:31;;;;;;;3.50;2.47;;;;;;;28.56;51.59;95442.03;5084215;28;20257;-68
2021/06/17 08:37:00;;;;;;;3.45;3.25;;;;;;;28.60;53.23;95436.78;5087096;28;20690;-67
2021/06/17 08:39:29;;;;;;;3.22;3.03;;;;;;;28.75;52.63;95443.81;5081348;28;20321;-67
2021/06/17 08:42:00;;;;;;;4.18;3.97;;;;;;;28.85;53.20;95441.69;5084769;28;20220;-68
2021/06/17 08:44:29;;;;;;;4.80;4.38;;;;;;;28.96;52.97;95445.00;5081286;28;20229;-68
2021/06/17 08:46:57;;;;;;;2.97;2.83;;;;;;;29.10;53.54;95444.97;5090074;28;20224;-68
2021/06/17 08:49:27;;;;;;;5.07;3.13;;;;;;;29.35;52.45;95438.97;5077817;28;20304;-68
2021/06/17 08:51:58;;;;;;;4.45;3.40;;;;;;;29.72;50.80;95440.53;5088590;28;20496;-68
2021/06/17 08:54:29;;;;;;;2.63;2.53;;;;;;;29.94;51.09;95436.16;5082072;28;20218;-68
2021/06/17 08:56:57;;;;;;;3.80;3.60;;;;;;;30.19;51.28;95438.22;5081040;28;20236;-68
2021/06/17 08:59:30;;;;;;;4.13;3.15;;;;;;;30.54;48.04;95433.72;5084682;28;20294;-68
2021/06/17 09:02:00;;;;;;;3.08;2.72;;;;;;;30.73;48.71;95433.47;5090697;28;20300;-68
2021/06/17 09:04:30;;;;;;;4.40;3.47;;;;;;;30.81;48.01;95432.66;5079777;28;20327;-68
2021/06/17 09:07:06;;;;;;;2.25;2.15;;;;;;;30.93;49.31;95433.97;5084364;28;20838;-68
2021/06/17 09:09:37;;;;;;;3.17;2.80;;;;;;;30.94;49.15;95430.13;5081702;28;20298;-68
2021/06/17 09:12:07;;;;;;;2.55;2.45;;;;;;;31.06;47.77;95433.03;5079302;28;20304;-68
2021/06/17 09:14:36;;;;;;;2.92;2.83;;;;;;;30.99;46.43;95443.59;5081822;28;20229;-68
2021/06/17 09:17:05;;;;;;;2.25;2.15;;;;;;;30.96;46.96;95445.03;5075548;28;20310;-68
2021/06/17 09:19:38;;;;;;;2.65;2.50;;;;;;;31.16;47.23;95449.06;5088698;28;20213;-68
2021/06/17 09:22:09;;;;;;;1.98;1.88;;;;;;;31.45;47.92;95445.72;5075161;28;20730;-68
2021/06/17 09:24:39;;;;;;;3.20;3.00;;;;;;;31.71;45.27;95442.97;5073028;28;20222;-68
2021/06/17 09:27:26;;;;;;;2.67;2.58;;;;;;;31.72;44.97;95439.09;5077099;28;20219;-67
2021/06/17 09:29:56;;;;;;;2.50;2.30;;;;;;;31.82;44.80;95444.28;5085302;28;20222;-68
2021/06/17 09:32:26;;;;;;;2.92;2.72;;;;;;;31.93;43.83;95453.72;5079702;28;20322;-68
2021/06/17 09:34:55;;;;;;;2.20;2.10;;;;;;;32.16;44.30;95450.75;5079335;28;20304;-68
2021/06/17 09:37:36;;;;;;;2.05;1.95;;;;;;;32.50;42.64;95447.13;5078573;28;20308;-68
2021/06/17 09:40:24;;;;;;;3.45;2.58;;;;;;;32.62;41.77;95449.16;5087708;28;20596;-68
2021/06/17 09:42:54;;;;;;;2.60;2.50;;;;;;;32.57;41.87;95449.34;5087625;28;20312;-68
2021/06/17 09:45:24;;;;;;;2.60;2.38;;;;;;;32.72;41.56;95451.50;5084982;28;20221;-68
2021/06/17 09:47:54;;;;;;;3.05;2.25;;;;;;;32.74;41.60;95454.72;5084066;28;20619;-68
2021/06/17 09:50:26;;;;;;;1.85;1.73;;;;;;;32.85;39.98;95455.97;5087360;28;20267;-68
2021/06/17 09:52:57;;;;;;;2.70;2.53;;;;;;;33.05;40.65;95457.94;5084461;28;20230;-68
2021/06/17 09:55:42;;;;;;;1.75;1.65;;;;;;;33.17;40.05;95448.19;5084713;28;20221;-68
2021/06/17 09:58:11;;;;;;;2.88;1.90;;;;;;;33.25;40.32;95445.38;5081507;28;20686;-68
2021/06/17 10:00:55;;;;;;;2.03;1.92;;;;;;;33.28;40.08;95438.44;5086899;28;20742;-68
2021/06/17 10:03:24;;;;;;;3.10;1.75;;;;;;;33.40;38.65;95435.81;5082889;28;20479;-68
2021/06/17 10:05:51;;;;;;;2.10;1.75;;;;;;;33.45;39.41;95427.38;5081444;28;20312;-67
2021/06/17 10:08:21;;;;;;;2.17;2.08;;;;;;;33.41;39.57;95431.94;5082919;28;20222;-68
2021/06/17 10:10:50;;;;;;;4.18;1.92;;;;;;;33.52;39.41;95430.38;5086134;28;20221;-68
2021/06/17 10:13:20;;;;;;;2.65;1.77;;;;;;;33.43;39.10;95426.13;5082381;28;20236;-67
2021/06/17 10:15:49;;;;;;;2.03;1.92;;;;;;;33.51;42.25;95425.25;5092236;28;20452;-68
2021/06/17 10:18:19;;;;;;;2.40;2.30;;;;;;;33.88;40.44;95428.94;5082495;28;20239;-67
2021/06/17 10:20:49;;;;;;;1.88;1.80;;;;;;;34.08;40.64;95422.59;5085376;28;20212;-68
2021/06/17 10:23:22;;;;;;;2.15;2.05;;;;;;;34.11;37.65;95421.94;5080860;28;20291;-67
2021/06/17 10:25:50;;;;;;;1.77;1.67;;;;;;;34.10;37.48;95420.31;5081582;28;20298;-68
2021/06/17 10:28:41;;;;;;;2.28;2.17;;;;;;;34.29;38.36;95427.19;5088043;28;20248;-67
2021/06/17 10:31:10;;;;;;;3.13;2.83;;;;;;;34.27;39.43;95422.03;5081324;28;20228;-69
2021/06/17 10:33:40;;;;;;;3.05;2.03;;;;;;;34.34;36.77;95424.22;5083863;28;20650;-69
2021/06/17 10:36:23;;;;;;;2.30;2.10;;;;;;;34.50;36.53;95416.97;5076200;28;20236;-69
2021/06/17 10:39:15;;;;;;;1.40;1.40;;;;;;;34.42;37.38;95421.41;5080434;28;20254;-69
2021/06/17 10:42:25;;;;;;;3.03;2.72;;;;;;;34.16;38.02;95418.97;5085737;28;20244;-69
2021/06/17 10:44:55;;;;;;;4.35;1.88;;;;;;;34.30;38.29;95428.81;5090666;28;20660;-69
2021/06/17 10:47:52;;;;;;;3.05;2.72;;;;;;;34.54;38.76;95417.88;5085838;28;20721;-69
2021/06/17 10:50:22;;;;;;;1.85;1.83;;;;;;;35.04;37.85;95419.47;5084812;27;20319;-68
2021/06/17 10:52:52;;;;;;;1.73;1.63;;;;;;;35.22;35.72;95415.28;5081486;28;20737;-68
2021/06/17 10:55:24;;;;;;;2.22;1.80;;;;;;;35.36;34.95;95403.91;5081877;28;20605;-69
2021/06/17 10:57:54;;;;;;;2.75;2.05;;;;;;;35.17;33.90;95399.06;5087818;28;20849;-68
2021/06/17 11:00:52;;;;;;;4.15;2.13;;;;;;;35.16;35.62;95389.25;5083526;28;20772;-68
2021/06/17 11:03:41;;;;;;;2.15;2.05;;;;;;;35.12;36.17;95391.09;5037402;28;20684;-68
2021/06/17 11:06:09;;;;;;;7.40;1.80;;;;;;;35.05;34.52;95383.44;5073859;28;20279;-69
2021/06/17 11:08:37;;;;;;;3.17;2.95;;;;;;;34.74;34.02;95392.25;5084420;28;20797;-69
2021/06/17 11:11:08;;;;;;;2.45;2.35;;;;;;;34.58;35.30;95401.56;5091455;28;20237;-69
2021/06/17 11:13:38;;;;;;;2.88;1.55;;;;;;;34.63;34.33;95404.84;5082721;28;20313;-69
2021/06/17 11:16:08;;;;;;;5.03;2.30;;;;;;;34.58;35.50;95402.34;5088369;28;20221;-69
2021/06/17 11:18:57;;;;;;;4.85;2.45;;;;;;;34.32;33.43;95399.13;5085130;28;20225;-69
2021/06/17 11:21:39;;;;;;;6.50;2.10;;;;;;;34.05;32.96;95395.91;5081959;28;20282;-69
2021/06/17 11:24:30;;;;;;;2.55;2.25;;;;;;;34.06;34.68;95394.75;5092404;28;20312;-69
2021/06/17 11:27:01;;;;;;;2.00;1.90;;;;;;;34.19;35.22;95390.88;5087031;28;20624;-69
2021/06/17 11:29:56;;;;;;;2.20;2.10;;;;;;;34.33;36.13;95389.75;5086694;28;20304;-69
2021/06/17 11:32:27;;;;;;;4.78;2.30;;;;;;;34.65;36.54;95380.63;5078297;28;20243;-68
2021/06/17 11:34:55;;;;;;;2.25;2.15;;;;;;;34.86;35.84;95388.72;5079641;28;20295;-68
2021/06/17 11:37:23;;;;;;;2.35;2.25;;;;;;;35.20;35.01;95381.91;5089245;28;20771;-68
2021/06/17 11:39:51;;;;;;;2.75;1.90;;;;;;;34.79;33.23;95380.28;5100608;27;20320;-68
2021/06/17 11:42:22;;;;;;;3.10;2.80;;;;;;;34.56;35.35;95377.22;5085681;28;20225;-68
2021/06/17 11:45:08;;;;;;;2.15;2.05;;;;;;;34.51;35.53;95374.72;5083076;27;20653;-68
2021/06/17 11:47:45;;;;;;;1.90;1.80;;;;;;;34.43;35.08;95378.38;5086083;28;20708;-69
2021/06/17 11:50:13;;;;;;;3.22;2.10;;;;;;;34.47;37.24;95373.78;5077780;28;20264;-69
2021/06/17 11:52:45;;;;;;;1.95;1.85;;;;;;;34.80;37.63;95376.38;5083231;28;20626;-69
2021/06/17 11:55:13;;;;;;;1.50;1.45;;;;;;;35.15;36.94;95384.91;5086427;28;20333;-69